Time;durP1;ratioP1;P1;durP2;ratioP2;P2;SDS_P1;SDS_P2;PMS_P1;PMS_P2;Temp;Humidity;BMP_temperature;BMP_pressure;BME280_temperature;BME280_humidity;BME280_pressure;Samples;Min_cycle;Max_cycle;Signal;HPM_P1;HPM_P2
2022/09/24 03:40:29;;;;;;;26.50;24.50;;;11.90;99.90;;;;;;5070444;23;20495;-70
2022/09/24 03:42:56;;;;;;;26.00;24.10;;;11.90;99.90;;;;;;4972888;28;20463;-71
2022/09/24 03:45:23;;;;;;;25.20;23.50;;;11.90;99.90;;;;;;4972533;28;20451;-71
2022/09/24 03:47:49;;;;;;;26.33;24.30;;;11.80;99.90;;;;;;4972809;28;20460;-71
2022/09/24 03:50:16;;;;;;;26.20;24.40;;;11.90;99.90;;;;;;4973049;28;20456;-71
2022/09/24 03:52:43;;;;;;;26.23;24.30;;;11.80;99.90;;;;;;4972838;28;20539;-72
2022/09/24 03:55:10;;;;;;;25.70;23.90;;;11.80;99.90;;;;;;4972426;28;20455;-72
2022/09/24 03:57:38;;;;;;;27.00;25.13;;;11.90;99.90;;;;;;4972474;28;21324;-72
2022/09/24 04:00:05;;;;;;;26.60;24.70;;;11.90;99.90;;;;;;4972416;28;20459;-72
2022/09/24 04:02:32;;;;;;;26.43;24.67;;;12.00;99.90;;;;;;4972720;28;20452;-72
2022/09/24 04:04:58;;;;;;;27.40;25.50;;;12.00;99.90;;;;;;4972785;28;20514;-73
2022/09/24 04:07:25;;;;;;;26.60;24.80;;;12.00;99.90;;;;;;4972634;28;20833;-72
2022/09/24 04:09:51;;;;;;;27.80;25.60;;;12.00;99.90;;;;;;4972407;28;20530;-72
2022/09/24 04:12:19;;;;;;;27.17;25.07;;;12.00;99.90;;;;;;4972832;28;20510;-72
2022/09/24 04:14:47;;;;;;;28.30;25.70;;;12.10;99.90;;;;;;4972716;28;20553;-72
2022/09/24 04:17:15;;;;;;;27.27;25.10;;;12.10;99.90;;;;;;4972633;28;20460;-72
2022/09/24 04:19:42;;;;;;;27.50;25.40;;;12.10;99.90;;;;;;4972184;28;20452;-72
2022/09/24 04:22:09;;;;;;;25.43;23.90;;;12.00;99.90;;;;;;4972123;28;20529;-73
2022/09/24 04:24:36;;;;;;;27.90;26.10;;;12.00;99.90;;;;;;4972190;28;20451;-72
2022/09/24 04:27:02;;;;;;;27.53;25.53;;;12.00;99.90;;;;;;4972342;28;21024;-73
2022/09/24 04:29:29;;;;;;;27.73;25.40;;;12.10;99.90;;;;;;4974360;28;20455;-72
2022/09/24 04:31:58;;;;;;;27.60;25.90;;;12.20;99.90;;;;;;4980701;28;20427;-72
2022/09/24 04:34:24;;;;;;;27.93;25.67;;;12.20;99.90;;;;;;4979311;28;20448;-72
2022/09/24 04:36:51;;;;;;;29.07;26.87;;;12.20;99.90;;;;;;4979644;28;20800;-72
2022/09/24 04:39:17;;;;;;;26.93;25.23;;;12.30;99.90;;;;;;4961588;28;20480;-71
2022/09/24 04:41:46;;;;;;;27.20;25.40;;;12.30;99.90;;;;;;4959104;28;20515;-73
2022/09/24 04:44:14;;;;;;;28.77;26.87;;;12.30;99.90;;;;;;4961001;28;20451;-72
2022/09/24 04:46:41;;;;;;;27.17;25.47;;;12.40;99.90;;;;;;4961725;28;20462;-72
2022/09/24 04:49:10;;;;;;;25.43;23.83;;;12.40;99.90;;;;;;4960321;28;20873;-72
2022/09/24 04:51:37;;;;;;;25.60;24.00;;;12.30;99.90;;;;;;4960178;28;20450;-72
2022/09/24 04:54:04;;;;;;;26.53;24.73;;;12.30;99.90;;;;;;4961806;28;20491;-72
2022/09/24 04:56:31;;;;;;;27.27;25.20;;;12.20;99.90;;;;;;4966762;28;20451;-72
2022/09/24 04:58:58;;;;;;;26.97;25.10;;;12.20;99.90;;;;;;4971799;28;20510;-72
2022/09/24 05:01:25;;;;;;;25.97;24.27;;;12.10;99.90;;;;;;4971488;28;20498;-72
2022/09/24 05:03:52;;;;;;;28.00;25.90;;;12.20;99.90;;;;;;4971433;28;20544;-72
2022/09/24 05:06:20;;;;;;;28.80;26.40;;;12.20;99.90;;;;;;4971443;28;20594;-71
2022/09/24 05:08:47;;;;;;;27.40;25.43;;;12.20;99.90;;;;;;4971531;28;20864;-71
2022/09/24 05:11:13;;;;;;;26.67;24.97;;;12.20;99.90;;;;;;4971413;28;20918;-71
2022/09/24 05:13:40;;;;;;;26.30;24.60;;;12.20;99.90;;;;;;4971383;28;20459;-71
2022/09/24 05:16:07;;;;;;;26.50;24.80;;;12.20;99.90;;;;;;4971282;28;20720;-71
2022/09/24 05:18:34;;;;;;;27.50;25.40;;;12.20;99.90;;;;;;4971125;28;20460;-70
2022/09/24 05:21:01;;;;;;;27.20;25.13;;;12.20;99.90;;;;;;4971167;28;21015;-71
2022/09/24 05:23:29;;;;;;;26.23;24.53;;;12.20;99.90;;;;;;4971325;28;20854;-70
2022/09/24 05:28:41;;;;;;;27.47;25.37;;;12.20;99.90;;;;;;4971142;28;20542;-70
2022/09/24 05:31:09;;;;;;;27.27;25.17;;;12.20;99.90;;;;;;4971031;28;20452;-71
2022/09/24 05:33:36;;;;;;;26.93;24.83;;;12.20;99.90;;;;;;4971073;28;20462;-71
2022/09/24 05:36:03;;;;;;;26.90;25.17;;;12.30;99.90;;;;;;4971130;28;20443;-70
2022/09/24 05:38:31;;;;;;;27.97;25.80;;;12.30;99.90;;;;;;4971061;28;20510;-71
2022/09/24 05:40:58;;;;;;;28.47;26.37;;;12.30;99.90;;;;;;4971006;28;20515;-73
2022/09/24 05:43:26;;;;;;;25.80;23.90;;;12.30;99.90;;;;;;4970532;28;20468;-72
2022/09/24 05:45:53;;;;;;;26.60;24.60;;;12.30;99.90;;;;;;4970353;28;20463;-72
2022/09/24 05:48:20;;;;;;;25.40;23.87;;;12.30;99.90;;;;;;4970216;28;20861;-71
2022/09/24 05:50:47;;;;;;;24.43;22.93;;;12.30;99.90;;;;;;4970619;28;20542;-72
2022/09/24 05:53:14;;;;;;;27.00;25.30;;;12.30;99.90;;;;;;4970168;28;20459;-71
2022/09/24 05:55:42;;;;;;;27.20;24.80;;;12.30;99.90;;;;;;4970340;28;20459;-72
2022/09/24 05:58:10;;;;;;;25.70;23.77;;;12.30;99.90;;;;;;4970215;28;20459;-73
2022/09/24 06:00:38;;;;;;;25.33;23.83;;;12.40;99.90;;;;;;4970227;28;20452;-71
2022/09/24 06:03:06;;;;;;;26.40;24.50;;;12.40;99.90;;;;;;4970501;28;20491;-71
2022/09/24 06:05:34;;;;;;;25.43;23.80;;;12.40;99.90;;;;;;4970498;28;20467;-71
2022/09/24 06:08:01;;;;;;;25.20;23.20;;;12.40;99.90;;;;;;4970627;28;20455;-71
2022/09/24 06:10:28;;;;;;;24.77;23.07;;;12.40;99.90;;;;;;4970323;28;20839;-71
2022/09/24 06:12:56;;;;;;;22.67;20.97;;;12.40;99.90;;;;;;4970028;28;20502;-71
2022/09/24 06:15:24;;;;;;;23.50;22.00;;;12.50;99.90;;;;;;4969952;28;20546;-72
2022/09/24 06:17:53;;;;;;;24.57;22.97;;;12.50;99.90;;;;;;4969977;28;20451;-72
2022/09/24 06:20:20;;;;;;;25.03;23.10;;;12.60;99.90;;;;;;4969950;28;20539;-72
2022/09/24 06:22:46;;;;;;;24.67;22.50;;;12.70;99.90;;;;;;4970106;28;21064;-72
2022/09/24 06:25:13;;;;;;;24.70;22.87;;;12.80;99.90;;;;;;4969977;28;20452;-73
2022/09/24 06:27:40;;;;;;;23.53;22.00;;;12.90;99.90;;;;;;4970062;28;20456;-74
2022/09/24 06:30:10;;;;;;;21.83;20.43;;;12.90;99.90;;;;;;4970016;28;20724;-73
2022/09/24 06:32:37;;;;;;;24.60;22.90;;;12.90;99.90;;;;;;4970012;28;20900;-73
2022/09/24 06:35:04;;;;;;;24.20;22.50;;;13.00;99.90;;;;;;4970073;28;20452;-72
2022/09/24 06:37:32;;;;;;;26.70;24.20;;;13.10;99.90;;;;;;4970301;28;20522;-72
2022/09/24 06:39:59;;;;;;;23.87;22.43;;;13.00;99.90;;;;;;4970176;28;20487;-72
2022/09/24 06:42:26;;;;;;;24.00;22.50;;;13.10;99.90;;;;;;4969983;28;20852;-72
2022/09/24 06:44:53;;;;;;;23.83;22.23;;;13.10;99.90;;;;;;4970171;28;20898;-73
2022/09/24 06:47:22;;;;;;;23.23;21.63;;;13.20;99.90;;;;;;4969715;28;20452;-73
2022/09/24 06:49:49;;;;;;;23.07;21.57;;;13.20;99.90;;;;;;4969661;28;20459;-72
2022/09/24 06:52:16;;;;;;;23.50;22.03;;;13.20;99.90;;;;;;4969770;28;20462;-73
2022/09/24 06:54:43;;;;;;;24.57;22.87;;;13.20;99.90;;;;;;4969665;28;20539;-73
2022/09/24 06:57:10;;;;;;;24.80;23.20;;;13.20;99.90;;;;;;4969380;28;20458;-73
2022/09/24 06:59:36;;;;;;;23.00;21.63;;;13.30;99.90;;;;;;4969279;28;20456;-73
2022/09/24 07:02:03;;;;;;;23.57;21.90;;;13.40;99.90;;;;;;4969541;28;20542;-72
2022/09/24 07:04:31;;;;;;;21.67;20.23;;;13.40;99.90;;;;;;4970875;28;21014;-73
2022/09/24 07:09:42;;;;;;;24.00;22.23;;;13.40;99.90;;;;;;4973018;28;20501;-73
2022/09/24 07:12:09;;;;;;;23.67;22.27;;;13.40;99.90;;;;;;4972642;28;20455;-73
2022/09/24 07:14:36;;;;;;;24.20;22.50;;;13.40;99.90;;;;;;4972714;28;20453;-72
2022/09/24 07:17:02;;;;;;;22.03;20.63;;;13.50;99.90;;;;;;4972815;28;20479;-73
2022/09/24 07:19:30;;;;;;;22.17;20.77;;;13.60;99.90;;;;;;4973100;28;20452;-76
2022/09/24 07:21:57;;;;;;;22.80;21.20;;;13.60;99.90;;;;;;4972666;28;20491;-75
2022/09/24 07:24:24;;;;;;;22.47;21.03;;;13.70;99.90;;;;;;4972497;28;20855;-75
2022/09/24 07:26:51;;;;;;;24.00;22.60;;;13.80;99.90;;;;;;4969504;28;20451;-75
2022/09/24 07:29:18;;;;;;;23.40;22.00;;;13.80;99.90;;;;;;4971505;28;20508;-75
2022/09/24 07:31:44;;;;;;;23.27;21.83;;;13.80;99.90;;;;;;4973115;28;20526;-75
2022/09/24 07:34:12;;;;;;;22.90;21.13;;;13.80;99.90;;;;;;4973065;28;20452;-76
2022/09/24 07:36:40;;;;;;;24.03;22.50;;;13.80;99.90;;;;;;4971051;28;20509;-75
2022/09/24 07:39:07;;;;;;;22.73;21.23;;;13.90;99.90;;;;;;4972339;28;20495;-76
2022/09/24 07:41:34;;;;;;;24.40;22.43;;;13.90;99.90;;;;;;4972406;28;20843;-76
2022/09/24 07:44:01;;;;;;;23.27;21.37;;;14.00;99.90;;;;;;4973131;28;20451;-76
2022/09/24 07:46:28;;;;;;;22.37;20.97;;;14.10;99.90;;;;;;4973032;28;20458;-76
2022/09/24 07:48:56;;;;;;;24.77;23.13;;;14.20;99.90;;;;;;4972649;28;20495;-76
2022/09/24 07:51:23;;;;;;;22.43;21.03;;;14.20;99.90;;;;;;4972518;28;20852;-76
2022/09/24 07:53:51;;;;;;;23.10;21.53;;;14.40;99.90;;;;;;4971980;28;20554;-76
2022/09/24 07:56:18;;;;;;;22.20;20.70;;;14.60;99.90;;;;;;4972181;28;20482;-76
2022/09/24 07:58:47;;;;;;;22.40;20.90;;;14.70;99.90;;;;;;4972806;28;20882;-75
2022/09/24 08:01:15;;;;;;;22.57;21.13;;;14.70;99.90;;;;;;4972667;28;20463;-75
2022/09/24 08:03:42;;;;;;;20.83;19.57;;;14.80;99.90;;;;;;4972056;28;20523;-76
2022/09/24 08:06:09;;;;;;;23.10;21.60;;;14.80;99.90;;;;;;4972017;28;20478;-76
2022/09/24 08:08:37;;;;;;;20.93;19.63;;;14.90;99.90;;;;;;4971751;28;20459;-76
2022/09/24 08:11:06;;;;;;;22.20;20.47;;;15.10;99.90;;;;;;4970282;28;20478;-76
2022/09/24 08:13:33;;;;;;;22.27;20.60;;;15.20;99.90;;;;;;4972187;28;20910;-76
2022/09/24 08:16:01;;;;;;;21.53;20.03;;;15.20;99.90;;;;;;4966018;28;20551;-75
2022/09/24 08:18:30;;;;;;;21.97;20.47;;;15.40;99.90;;;;;;4952756;28;20523;-75
2022/09/24 08:20:57;;;;;;;21.53;20.13;;;15.50;99.90;;;;;;4952520;28;20449;-75
2022/09/24 08:23:24;;;;;;;20.93;19.17;;;15.60;99.90;;;;;;4971610;28;20486;-76
2022/09/24 08:25:50;;;;;;;21.27;19.67;;;15.60;99.90;;;;;;4956478;28;20457;-76
2022/09/24 08:28:18;;;;;;;22.73;21.10;;;15.70;99.90;;;;;;4952622;28;20456;-76
2022/09/24 08:30:45;;;;;;;23.00;21.40;;;15.60;99.90;;;;;;4953008;28;20468;-76
2022/09/24 08:33:12;;;;;;;21.37;19.83;;;15.70;99.90;;;;;;4952571;28;20445;-76
2022/09/24 08:35:39;;;;;;;20.77;19.30;;;15.80;99.90;;;;;;4952430;28;20467;-73
2022/09/24 08:38:07;;;;;;;22.43;20.93;;;16.00;99.90;;;;;;4952192;28;20635;-76
2022/09/24 08:40:38;;;;;;;20.10;18.83;;;16.40;99.90;;;;;;4952203;28;20484;-76
2022/09/24 08:43:19;;;;;;;21.63;20.17;;;16.40;99.90;;;;;;4952353;28;20588;-73
2022/09/24 08:48:42;;;;;;;20.83;19.57;;;16.50;99.90;;;;;;4951970;29;20428;-75
2022/09/24 08:51:15;;;;;;;20.40;18.90;;;16.70;99.90;;;;;;4951801;28;20915;-74
2022/09/24 08:53:47;;;;;;;20.93;19.37;;;17.40;99.90;;;;;;4957365;28;20507;-75
2022/09/24 08:56:17;;;;;;;20.50;19.07;;;18.00;99.90;;;;;;4971617;28;20538;-74
2022/09/24 08:58:48;;;;;;;20.60;19.20;;;18.40;99.90;;;;;;4971501;28;20448;-75
2022/09/24 09:01:26;;;;;;;19.40;18.10;;;18.70;99.90;;;;;;4971644;28;20797;-75
2022/09/24 09:03:57;;;;;;;19.70;18.33;;;18.70;99.90;;;;;;4971091;28;20495;-76
2022/09/24 09:06:42;;;;;;;20.30;18.80;;;18.80;99.90;;;;;;4970985;28;20452;-75
2022/09/24 09:09:13;;;;;;;19.87;18.37;;;19.30;99.90;;;;;;4970937;28;20782;-75
2022/09/24 09:11:42;;;;;;;18.57;17.57;;;20.10;99.90;;;;;;4970934;28;20452;-75
2022/09/24 09:14:16;;;;;;;17.90;16.90;;;20.20;99.90;;;;;;4970617;28;20459;-75
2022/09/24 09:16:49;;;;;;;19.67;18.47;;;20.20;99.90;;;;;;4970840;28;20872;-75
2022/09/24 09:19:17;;;;;;;18.57;17.27;;;19.90;99.90;;;;;;4970982;28;20455;-75
2022/09/24 09:21:46;;;;;;;19.00;17.80;;;19.70;99.90;;;;;;4970619;28;20621;-75
2022/09/24 09:24:17;;;;;;;17.90;17.00;;;20.00;99.90;;;;;;4966245;28;20453;-75
2022/09/24 09:26:48;;;;;;;17.90;16.90;;;20.40;99.90;;;;;;4951073;28;20453;-75
2022/09/24 09:29:16;;;;;;;18.00;16.90;;;20.10;99.90;;;;;;4952175;28;20463;-75
2022/09/24 09:31:57;;;;;;;18.40;17.13;;;20.20;99.90;;;;;;4952162;28;20599;-75
2022/09/24 09:34:39;;;;;;;18.73;17.23;;;20.70;99.90;;;;;;4951722;28;21013;-75
2022/09/24 09:37:18;;;;;;;17.27;16.27;;;20.80;99.90;;;;;;4949711;28;20496;-75
2022/09/24 09:39:54;;;;;;;19.50;18.30;;;20.10;99.90;;;;;;4951883;28;20484;-75
2022/09/24 09:42:31;;;;;;;15.97;14.80;;;19.80;99.90;;;;;;4949967;28;20514;-75
2022/09/24 09:45:01;;;;;;;15.43;14.63;;;19.20;99.90;;;;;;4951382;28;20531;-74
2022/09/24 09:47:40;;;;;;;12.90;12.40;;;19.40;99.90;;;;;;4951353;28;20853;-74
2022/09/24 09:50:25;;;;;;;14.80;13.80;;;19.00;99.90;;;;;;4949738;28;20834;-74
2022/09/24 09:52:52;;;;;;;14.30;13.60;;;19.30;99.90;;;;;;4950886;28;20982;-75
2022/09/24 09:55:27;;;;;;;13.03;12.53;;;19.40;99.90;;;;;;4950876;28;20453;-75
2022/09/24 09:58:09;;;;;;;12.77;12.27;;;19.70;99.90;;;;;;4948815;28;20988;-75
2022/09/24 10:00:36;;;;;;;14.00;13.30;;;20.10;99.90;;;;;;4952949;28;20444;-74
2022/09/24 10:03:05;;;;;;;13.80;13.00;;;20.10;99.90;;;;;;4959866;28;20491;-75
2022/09/24 10:05:31;;;;;;;12.93;12.43;;;20.00;99.90;;;;;;4959998;28;20457;-75
2022/09/24 10:07:58;;;;;;;13.60;12.97;;;20.00;99.90;;;;;;4957927;28;20449;-76
2022/09/24 10:10:26;;;;;;;13.40;12.80;;;20.20;99.90;;;;;;4959075;28;20584;-75
2022/09/24 10:13:05;;;;;;;12.70;12.20;;;20.30;99.90;;;;;;4959403;28;20445;-74
2022/09/24 10:15:32;;;;;;;14.60;13.90;;;20.50;99.90;;;;;;4958842;28;20441;-75
2022/09/24 10:18:00;;;;;;;15.17;14.27;;;20.50;99.90;;;;;;4963729;28;20455;-77
2022/09/24 10:20:32;;;;;;;15.57;14.63;;;20.80;99.90;;;;;;4969651;28;20526;-74
2022/09/24 10:23:01;;;;;;;14.40;13.80;;;20.70;99.90;;;;;;4969723;28;20571;-76
2022/09/24 10:25:30;;;;;;;13.77;13.17;;;20.90;99.90;;;;;;4969605;28;20510;-74
2022/09/24 10:30:32;;;;;;;14.47;13.83;;;20.40;99.90;;;;;;4966594;28;20468;-75
2022/09/24 10:30:53;;;;;;;14.73;13.97;;;20.40;99.90;;;;;;4950368;29;20441;-76
2022/09/24 10:33:20;;;;;;;13.83;13.00;;;20.30;99.90;;;;;;4950319;28;20456;-76
2022/09/24 10:35:49;;;;;;;15.40;14.70;;;20.10;99.90;;;;;;4950705;28;20511;-75
2022/09/24 10:38:18;;;;;;;15.10;14.30;;;19.80;99.90;;;;;;4950524;28;20469;-76
2022/09/24 10:40:46;;;;;;;15.00;14.20;;;20.00;99.90;;;;;;4950420;28;21026;-76
2022/09/24 10:43:17;;;;;;;15.03;14.37;;;19.90;99.90;;;;;;4950193;28;20488;-76
2022/09/24 10:46:01;;;;;;;14.70;14.10;;;19.80;99.90;;;;;;4950557;28;20484;-76
2022/09/24 10:48:35;;;;;;;12.70;12.17;;;19.60;99.90;;;;;;4949901;28;20495;-76
2022/09/24 10:51:20;;;;;;;15.10;14.30;;;19.70;99.90;;;;;;4950470;28;20539;-75
2022/09/24 10:53:58;;;;;;;15.43;14.73;;;19.90;99.90;;;;;;4950223;28;20448;-76
2022/09/24 10:56:32;;;;;;;14.07;13.37;;;20.10;99.90;;;;;;4950248;28;20456;-76
2022/09/24 10:59:22;;;;;;;15.37;14.53;;;20.20;99.90;;;;;;4950484;28;20491;-76
2022/09/24 11:01:55;;;;;;;15.60;14.73;;;20.00;99.90;;;;;;4966835;28;20862;-75
2022/09/24 11:04:44;;;;;;;15.70;14.87;;;19.70;99.90;;;;;;4969375;28;20491;-76
2022/09/24 11:07:44;;;;;;;14.77;14.07;;;19.90;99.90;;;;;;4969027;28;20503;-75
2022/09/24 11:10:23;;;;;;;13.40;12.80;;;19.70;99.90;;;;;;4969234;28;20451;-75
2022/09/24 11:12:56;;;;;;;12.80;12.30;;;19.20;99.90;;;;;;4969071;28;20459;-75
2022/09/24 11:15:43;;;;;;;14.60;13.90;;;18.80;99.90;;;;;;4968751;28;20967;-75
2022/09/24 11:18:25;;;;;;;18.90;17.80;;;18.50;99.90;;;;;;4968714;28;21188;-76
2022/09/24 11:21:03;;;;;;;24.40;23.30;;;18.20;99.90;;;;;;4968955;28;20447;-76
2022/09/24 11:23:59;;;;;;;27.20;26.00;;;18.00;99.90;;;;;;4968720;28;20483;-76
2022/09/24 11:26:34;;;;;;;28.00;26.70;;;17.50;99.90;;;;;;4969008;28;20859;-78
2022/09/24 11:29:15;;;;;;;31.73;29.53;;;17.00;99.90;;;;;;4969329;28;20454;-79
2022/09/24 11:31:54;;;;;;;32.00;29.90;;;16.80;99.90;;;;;;4968826;28;20642;-80
2022/09/24 11:34:37;;;;;;;31.10;29.17;;;16.60;99.90;;;;;;4968674;28;20933;-77
2022/09/24 11:37:17;;;;;;;33.13;31.13;;;16.50;99.90;;;;;;4957909;28;20495;-78
2022/09/24 11:40:04;;;;;;;33.80;32.00;;;16.50;99.90;;;;;;4949430;28;20500;-79
2022/09/24 11:42:37;;;;;;;33.70;31.67;;;16.50;99.90;;;;;;4949642;28;21009;-77
2022/09/24 11:45:27;;;;;;;34.10;32.00;;;16.40;99.90;;;;;;4949526;28;20453;-76
2022/09/24 11:48:19;;;;;;;32.20;30.40;;;16.40;99.90;;;;;;4949018;28;20444;-76
2022/09/24 11:50:59;;;;;;;33.37;31.60;;;16.40;99.90;;;;;;4950784;28;20452;-76
2022/09/24 11:53:34;;;;;;;32.53;30.73;;;16.40;99.90;;;;;;4952920;28;20444;-77
2022/09/24 11:56:10;;;;;;;33.23;31.43;;;16.40;99.90;;;;;;4951106;29;20464;-80
2022/09/24 11:58:42;;;;;;;33.47;31.67;;;16.50;99.90;;;;;;4953082;28;20547;-78
2022/09/24 12:01:13;;;;;;;33.87;32.07;;;16.50;99.90;;;;;;4953374;28;20475;-77
2022/09/24 12:03:46;;;;;;;34.00;32.23;;;16.30;99.90;;;;;;4952612;28;20737;-76
2022/09/24 12:06:18;;;;;;;33.93;32.13;;;16.50;99.90;;;;;;4952795;28;20973;-78
2022/09/24 12:08:54;;;;;;;33.57;31.67;;;16.40;99.90;;;;;;4953097;28;20452;-76
2022/09/24 12:11:29;;;;;;;34.63;32.63;;;16.40;99.90;;;;;;4952724;28;20646;-77
2022/09/24 12:14:01;;;;;;;34.07;31.97;;;16.40;99.90;;;;;;4953169;28;20581;-77
2022/09/24 12:16:32;;;;;;;34.90;32.97;;;16.40;99.90;;;;;;4952624;28;20455;-76
2022/09/24 12:19:04;;;;;;;33.77;31.90;;;16.60;99.90;;;;;;4953037;28;20944;-76
2022/09/24 12:21:34;;;;;;;35.60;33.50;;;16.60;99.90;;;;;;4953063;28;20462;-77
2022/09/24 12:24:07;;;;;;;35.73;33.60;;;16.70;99.90;;;;;;4953039;28;20853;-76
2022/09/24 12:26:38;;;;;;;34.87;32.90;;;16.80;99.90;;;;;;4952849;28;20461;-75
2022/09/24 12:35:08;;;;;;;34.60;32.90;;;16.80;99.90;;;;;;4953488;29;20910;-75
2022/09/24 12:37:38;;;;;;;35.43;33.63;;;17.00;99.90;;;;;;4950644;28;20503;-74
2022/09/24 12:40:22;;;;;;;35.07;33.27;;;16.30;99.90;;;;;;4951541;28;21021;-75
2022/09/24 12:42:53;;;;;;;31.80;30.10;;;16.70;99.90;;;;;;4952359;28;20530;-74
2022/09/24 12:45:22;;;;;;;29.90;28.50;;;16.50;99.90;;;;;;4952240;28;20457;-74
2022/09/24 12:47:52;;;;;;;30.30;28.90;;;16.50;99.90;;;;;;4952210;28;20868;-75
2022/09/24 12:50:22;;;;;;;30.37;28.57;;;16.60;99.90;;;;;;4952108;28;20445;-75
2022/09/24 12:52:49;;;;;;;29.63;28.00;;;16.50;99.90;;;;;;4952255;28;20460;-75
2022/09/24 12:55:20;;;;;;;30.37;28.90;;;16.50;99.90;;;;;;4952164;28;20460;-78
2022/09/24 12:57:54;;;;;;;31.17;29.37;;;16.60;99.90;;;;;;4952598;28;20950;-79
2022/09/24 13:00:39;;;;;;;31.40;29.30;;;16.80;99.90;;;;;;4952264;28;20480;-79
2022/09/24 13:03:07;;;;;;;31.03;29.40;;;16.90;99.90;;;;;;4950708;28;20543;-79
2022/09/24 13:05:47;;;;;;;31.50;29.50;;;16.80;99.90;;;;;;4952150;28;20465;-79
2022/09/24 13:08:24;;;;;;;31.97;30.20;;;16.80;99.90;;;;;;4952139;28;20460;-79
2022/09/24 13:10:55;;;;;;;30.20;28.57;;;16.90;99.90;;;;;;4952082;28;20527;-78
2022/09/24 13:13:26;;;;;;;31.13;29.40;;;17.00;99.90;;;;;;4951963;28;20511;-76
2022/09/24 13:16:00;;;;;;;31.83;30.23;;;17.20;99.90;;;;;;4951775;28;20456;-78
2022/09/24 13:18:27;;;;;;;30.13;28.63;;;17.50;99.90;;;;;;4953470;28;20592;-77
2022/09/24 13:21:00;;;;;;;29.53;28.00;;;17.70;99.90;;;;;;4951659;28;20503;-77
2022/09/24 13:23:42;;;;;;;30.60;28.90;;;17.70;99.90;;;;;;4951506;28;21006;-77
2022/09/24 13:26:12;;;;;;;28.53;27.23;;;17.50;99.90;;;;;;4951502;28;21010;-76
2022/09/24 13:28:54;;;;;;;28.90;27.50;;;17.30;99.90;;;;;;4951407;28;20800;-76
2022/09/24 13:31:29;;;;;;;29.73;28.13;;;17.20;99.90;;;;;;4951528;28;20555;-77
2022/09/24 13:34:02;;;;;;;29.50;28.10;;;17.20;99.90;;;;;;4951542;28;20452;-76
2022/09/24 13:36:35;;;;;;;30.00;28.40;;;17.20;99.90;;;;;;4951481;28;20460;-77
2022/09/24 13:39:11;;;;;;;28.40;27.10;;;17.20;99.90;;;;;;4951622;28;20950;-76
2022/09/24 13:41:46;;;;;;;27.70;26.30;;;17.20;99.90;;;;;;4951206;28;20448;-76
2022/09/24 13:44:19;;;;;;;26.03;24.80;;;17.10;99.90;;;;;;4951368;28;20495;-76
2022/09/24 13:46:48;;;;;;;30.83;29.23;;;17.00;99.90;;;;;;4951596;28;20460;-80
2022/09/24 13:49:19;;;;;;;34.90;32.80;;;17.00;99.90;;;;;;4951736;28;20887;-79
2022/09/24 13:51:55;;;;;;;36.50;34.20;;;17.10;99.90;;;;;;4951445;28;20923;-78
2022/09/24 13:54:26;;;;;;;38.13;35.63;;;17.10;99.90;;;;;;4951057;28;20464;-78
2022/09/24 13:57:06;;;;;;;37.90;35.57;;;17.10;99.90;;;;;;4950984;28;20710;-78
2022/09/24 13:59:34;;;;;;;37.53;35.33;;;17.10;99.90;;;;;;4951293;28;20459;-77
2022/09/24 14:02:01;;;;;;;38.30;35.93;;;17.10;99.90;;;;;;4951048;28;20911;-78
2022/09/24 14:04:28;;;;;;;41.40;38.70;;;16.90;99.90;;;;;;4950647;28;20484;-77
2022/09/24 14:06:57;;;;;;;39.43;37.00;;;16.80;99.90;;;;;;4950735;28;20974;-77
2022/09/24 14:09:30;;;;;;;39.73;37.23;;;16.90;99.90;;;;;;4950722;28;20730;-77
2022/09/24 14:11:58;;;;;;;43.37;40.63;;;17.00;99.90;;;;;;4950855;28;20787;-77
2022/09/24 14:14:27;;;;;;;41.00;38.50;;;17.00;99.90;;;;;;4950337;28;20460;-76
2022/09/24 14:17:06;;;;;;;41.37;38.60;;;17.20;99.90;;;;;;4950436;28;20559;-76
2022/09/24 14:19:34;;;;;;;41.13;38.63;;;17.40;99.90;;;;;;4951061;28;20455;-76
2022/09/24 14:22:05;;;;;;;41.20;38.70;;;17.50;99.90;;;;;;4950735;28;20572;-75
2022/09/24 14:24:35;;;;;;;40.23;37.80;;;17.50;99.90;;;;;;4950779;28;20492;-75
2022/09/24 14:27:04;;;;;;;40.53;38.13;;;17.50;99.90;;;;;;4950598;28;20463;-78
2022/09/24 14:29:38;;;;;;;41.17;38.43;;;17.80;99.90;;;;;;4950634;28;20918;-77
2022/09/24 14:32:07;;;;;;;36.93;34.63;;;17.70;99.90;;;;;;4950680;28;20448;-76
2022/09/24 14:34:36;;;;;;;37.83;35.43;;;17.80;99.90;;;;;;4950659;28;20448;-76
2022/09/24 14:37:11;;;;;;;38.93;36.43;;;17.80;99.90;;;;;;4951018;28;20453;-76
2022/09/24 14:39:40;;;;;;;40.10;37.60;;;17.80;99.90;;;;;;4950789;28;21148;-75
2022/09/24 14:42:11;;;;;;;39.53;37.03;;;17.80;99.90;;;;;;4950446;28;20491;-74
2022/09/24 14:44:41;;;;;;;41.47;38.83;;;17.90;99.90;;;;;;4950162;28;20787;-75
2022/09/24 14:47:25;;;;;;;40.60;38.10;;;17.80;99.90;;;;;;4957217;28;20496;-76
2022/09/24 14:49:52;;;;;;;39.27;36.77;;;18.20;99.90;;;;;;4959447;28;20468;-75
2022/09/24 14:52:27;;;;;;;39.77;37.47;;;17.90;99.90;;;;;;4958718;28;20457;-74
2022/09/24 14:55:13;;;;;;;40.10;37.70;;;17.80;99.90;;;;;;4955301;28;20436;-74
2022/09/24 14:57:39;;;;;;;39.80;37.50;;;17.60;99.90;;;;;;4957078;28;20833;-75
2022/09/24 15:00:20;;;;;;;37.73;35.53;;;17.70;99.90;;;;;;4957606;28;20453;-75
2022/09/24 15:02:51;;;;;;;37.57;35.27;;;17.60;99.90;;;;;;4959302;28;20570;-74
2022/09/24 15:05:24;;;;;;;36.70;34.70;;;17.40;99.90;;;;;;4958464;28;21018;-74
2022/09/24 15:07:50;;;;;;;36.97;34.97;;;17.50;99.90;;;;;;4957509;28;20448;-74
2022/09/24 15:10:20;;;;;;;36.97;35.03;;;17.70;99.90;;;;;;4958961;28;20452;-74
2022/09/24 15:12:47;;;;;;;36.40;34.40;;;17.70;99.90;;;;;;4959643;28;20965;-74
2022/09/24 15:15:28;;;;;;;35.40;33.40;;;17.70;99.90;;;;;;4957902;28;20858;-74
2022/09/24 15:17:56;;;;;;;33.80;31.80;;;17.60;99.90;;;;;;4955638;28;20997;-74
2022/09/24 15:20:22;;;;;;;34.20;32.40;;;17.70;99.90;;;;;;4957396;28;20895;-75
2022/09/24 15:22:49;;;;;;;34.03;32.00;;;17.70;99.90;;;;;;4959307;28;20447;-74
2022/09/24 15:25:16;;;;;;;33.87;31.83;;;17.80;99.90;;;;;;4959035;28;20496;-75
2022/09/24 15:27:43;;;;;;;32.93;31.23;;;17.90;99.90;;;;;;4961711;28;20435;-75
2022/09/24 15:30:16;;;;;;;32.93;31.13;;;17.80;99.90;;;;;;4960510;28;20456;-75
2022/09/24 15:32:43;;;;;;;31.67;30.17;;;17.70;99.90;;;;;;4961457;28;20443;-75
2022/09/24 15:35:15;;;;;;;31.90;30.20;;;17.70;99.90;;;;;;4962898;28;20463;-76
2022/09/24 15:37:42;;;;;;;30.17;28.67;;;17.70;99.90;;;;;;4972758;28;20494;-75
2022/09/24 15:40:19;;;;;;;30.43;28.67;;;17.80;99.90;;;;;;4972375;28;20659;-75
2022/09/24 15:42:46;;;;;;;28.77;27.37;;;17.80;99.90;;;;;;4973989;28;20455;-75
2022/09/24 15:45:17;;;;;;;29.07;27.67;;;17.60;99.90;;;;;;4972652;28;20495;-74
2022/09/24 15:47:44;;;;;;;27.60;26.10;;;17.50;99.90;;;;;;4972822;28;20770;-76
2022/09/24 15:50:12;;;;;;;27.47;25.87;;;17.50;99.90;;;;;;4971703;28;20452;-74
2022/09/24 15:52:44;;;;;;;25.97;24.50;;;17.40;99.90;;;;;;4972157;28;20478;-75
2022/09/24 15:55:15;;;;;;;26.27;24.67;;;17.50;99.90;;;;;;4972370;28;20447;-75
2022/09/24 15:57:42;;;;;;;26.20;24.70;;;17.50;99.90;;;;;;4972223;28;20452;-75
2022/09/24 16:00:14;;;;;;;24.97;23.70;;;17.50;99.90;;;;;;4972532;28;20451;-74
2022/09/24 16:02:45;;;;;;;23.50;22.20;;;17.60;99.90;;;;;;4972561;28;20544;-75
2022/09/24 16:05:14;;;;;;;22.30;21.10;;;17.50;99.90;;;;;;4972315;28;20565;-75
2022/09/24 16:07:41;;;;;;;22.83;21.50;;;17.40;99.90;;;;;;4972172;28;20542;-75
2022/09/24 16:10:09;;;;;;;22.07;20.77;;;17.30;99.90;;;;;;4972313;28;20878;-75
2022/09/24 16:12:36;;;;;;;20.93;19.80;;;17.20;99.90;;;;;;4972345;28;20795;-74
2022/09/24 16:15:03;;;;;;;22.47;21.17;;;17.10;99.90;;;;;;4972361;28;20463;-75
2022/09/24 16:17:30;;;;;;;24.37;22.60;;;17.00;99.90;;;;;;4972609;28;20480;-76
2022/09/24 16:19:57;;;;;;;23.20;21.87;;;16.90;99.90;;;;;;4972030;28;20452;-75
2022/09/24 16:22:25;;;;;;;22.93;21.53;;;16.90;99.90;;;;;;4972110;28;21092;-75
2022/09/24 16:24:52;;;;;;;23.27;21.97;;;16.80;99.90;;;;;;4972074;28;20487;-76
2022/09/24 16:27:19;;;;;;;22.37;21.07;;;16.70;99.90;;;;;;4972006;28;20452;-74
2022/09/24 16:29:46;;;;;;;22.60;21.30;;;16.60;99.90;;;;;;4971989;28;20463;-76
2022/09/24 16:32:13;;;;;;;22.60;21.30;;;16.70;99.90;;;;;;4971490;28;20498;-74
2022/09/24 16:34:40;;;;;;;21.47;20.30;;;16.70;99.90;;;;;;4972047;28;20539;-74
2022/09/24 16:37:07;;;;;;;22.07;20.67;;;16.80;99.90;;;;;;4971551;28;20571;-75
2022/09/24 16:39:35;;;;;;;21.03;19.83;;;16.70;99.90;;;;;;4971770;28;20499;-75